createdAt,value
2017-05-04T00:00:20.385Z,0
2017-05-04T00:01:00.923Z,0
2017-05-04T00:01:41.455Z,0
2017-05-04T00:02:21.994Z,0
2017-05-04T00:03:02.512Z,0
2017-05-04T00:03:43.049Z,0
2017-05-04T00:04:23.581Z,0
2017-05-04T00:05:04.112Z,0
2017-05-04T00:05:44.644Z,0
2017-05-04T00:06:25.169Z,0
2017-05-04T00:07:05.699Z,0
2017-05-04T00:07:46.232Z,0
2017-05-04T00:08:26.764Z,0
2017-05-04T00:09:07.294Z,0
2017-05-04T00:09:47.826Z,0
2017-05-04T00:10:28.359Z,0
2017-05-04T00:11:08.892Z,0
2017-05-04T00:11:49.430Z,0
2017-05-04T00:12:29.960Z,0
2017-05-04T00:13:10.487Z,0
2017-05-04T00:13:51.020Z,0
2017-05-04T00:14:31.554Z,0
2017-05-04T00:15:12.084Z,0
2017-05-04T00:15:52.618Z,0
2017-05-04T00:16:33.156Z,0
2017-05-04T00:17:13.703Z,0
2017-05-04T00:17:54.236Z,0
2017-05-04T00:18:34.761Z,0
2017-05-04T00:19:15.294Z,0
2017-05-04T00:19:55.834Z,0
2017-05-04T00:20:36.373Z,0
2017-05-04T00:21:16.897Z,0
2017-05-04T00:21:57.423Z,0
2017-05-04T00:22:37.962Z,0
2017-05-04T00:23:18.497Z,0
2017-05-04T00:23:59.063Z,0
2017-05-04T00:24:39.597Z,0
2017-05-04T00:25:20.130Z,0
2017-05-04T00:26:00.662Z,0
2017-05-04T00:26:41.186Z,0
2017-05-04T00:27:21.714Z,0
2017-05-04T00:28:02.248Z,0
2017-05-04T00:28:42.781Z,0
2017-05-04T00:29:23.318Z,0
2017-05-04T00:30:03.843Z,0
2017-05-04T00:30:44.369Z,0
2017-05-04T00:31:24.900Z,0
2017-05-04T00:32:05.432Z,0
2017-05-04T00:32:45.963Z,0
2017-05-04T00:33:26.489Z,0
2017-05-04T00:34:07.020Z,0
2017-05-04T00:34:47.553Z,0
2017-05-04T00:35:28.097Z,0
2017-05-04T00:36:08.622Z,0
2017-05-04T00:36:49.164Z,0
2017-05-04T00:37:29.674Z,0
2017-05-04T00:38:10.207Z,0
2017-05-04T00:38:50.736Z,0
2017-05-04T00:39:31.274Z,0
2017-05-04T00:40:11.805Z,0
2017-05-04T00:40:52.336Z,0
2017-05-04T00:41:32.875Z,0
2017-05-04T00:42:13.396Z,0
2017-05-04T00:42:53.927Z,0
2017-05-04T00:43:34.458Z,0
2017-05-04T00:44:14.990Z,0
2017-05-04T00:44:55.520Z,0
2017-05-04T00:45:36.050Z,0
2017-05-04T00:46:16.591Z,0
2017-05-04T00:46:57.123Z,0
2017-05-04T00:47:37.671Z,0
2017-05-04T00:48:18.191Z,0
2017-05-04T00:48:58.721Z,0
2017-05-04T00:49:39.256Z,0
2017-05-04T00:50:19.785Z,0
2017-05-04T00:51:00.324Z,0
2017-05-04T00:51:40.851Z,0
2017-05-04T00:52:21.384Z,0
2017-05-04T00:53:01.915Z,0
2017-05-04T00:53:42.447Z,0
2017-05-04T00:54:22.969Z,0
2017-05-04T00:55:03.504Z,0
2017-05-04T00:55:44.038Z,0
2017-05-04T00:56:24.568Z,0
2017-05-04T00:57:05.102Z,0
2017-05-04T00:57:45.628Z,0
2017-05-04T00:58:26.149Z,0
2017-05-04T00:59:06.683Z,0
2017-05-04T00:59:47.222Z,0
2017-05-04T01:00:27.761Z,0
2017-05-04T01:01:08.294Z,0
2017-05-04T01:01:48.831Z,0
2017-05-04T01:02:29.357Z,0
2017-05-04T01:03:09.887Z,0
2017-05-04T01:03:50.408Z,0
2017-05-04T01:04:30.947Z,0
2017-05-04T01:05:11.482Z,0
2017-05-04T01:05:52.017Z,0
2017-05-04T01:06:32.546Z,0
2017-05-04T01:07:13.078Z,0
2017-05-04T01:07:53.609Z,0
2017-05-04T01:08:34.148Z,0
2017-05-04T01:09:14.680Z,0
2017-05-04T01:09:55.215Z,0
2017-05-04T01:10:35.746Z,0
2017-05-04T01:11:16.266Z,0
2017-05-04T01:11:56.809Z,0
2017-05-04T01:12:37.350Z,0
2017-05-04T01:13:17.876Z,0
2017-05-04T01:13:58.396Z,0
2017-05-04T01:14:38.932Z,0
2017-05-04T01:15:19.473Z,0
2017-05-04T01:16:00.011Z,0
2017-05-04T01:16:40.541Z,0
2017-05-04T01:17:21.072Z,0
2017-05-04T01:18:01.604Z,0
2017-05-04T01:18:42.136Z,0
2017-05-04T01:19:22.673Z,0
2017-05-04T01:20:03.201Z,0
2017-05-04T01:20:43.743Z,0
2017-05-04T01:21:24.272Z,0
2017-05-04T01:22:04.800Z,0
2017-05-04T01:22:45.333Z,0
2017-05-04T01:23:25.866Z,0
2017-05-04T01:24:06.406Z,0
2017-05-04T01:24:46.930Z,0
2017-05-04T01:25:27.462Z,0
2017-05-04T01:26:07.994Z,0
2017-05-04T01:26:48.520Z,0
2017-05-04T01:27:29.067Z,0
2017-05-04T01:28:09.597Z,0
2017-05-04T01:28:50.133Z,0
2017-05-04T01:29:30.667Z,0
2017-05-04T01:30:11.353Z,0
2017-05-04T01:30:51.881Z,0
2017-05-04T01:31:32.415Z,0
2017-05-04T01:32:12.969Z,0
2017-05-04T01:32:53.516Z,0
2017-05-04T01:33:34.052Z,0
2017-05-04T01:34:14.589Z,0
2017-05-04T01:34:55.123Z,0
2017-05-04T01:35:35.658Z,0
2017-05-04T01:36:16.189Z,0
2017-05-04T01:36:56.723Z,0
2017-05-04T01:37:37.255Z,0
2017-05-04T01:38:17.781Z,0
2017-05-04T01:38:58.319Z,0
2017-05-04T01:39:38.860Z,0
2017-05-04T01:40:19.384Z,0
2017-05-04T01:40:59.921Z,0
2017-05-04T01:41:40.449Z,0
2017-05-04T01:42:20.988Z,0
2017-05-04T01:43:01.526Z,0
2017-05-04T01:43:42.065Z,0
2017-05-04T01:44:22.598Z,0
2017-05-04T01:45:03.130Z,0
2017-05-04T01:45:43.686Z,0
2017-05-04T01:46:24.198Z,0
2017-05-04T01:47:04.732Z,0
2017-05-04T01:47:45.266Z,0
2017-05-04T01:48:32.732Z,0
2017-05-04T01:49:13.282Z,0
2017-05-04T01:49:53.822Z,0
2017-05-04T01:50:34.372Z,0
2017-05-04T01:51:14.907Z,0
2017-05-04T01:51:55.452Z,0
2017-05-04T01:52:36.026Z,0
2017-05-04T01:53:16.539Z,0
2017-05-04T01:53:57.082Z,0
2017-05-04T01:54:37.613Z,0
2017-05-04T01:55:18.153Z,0
2017-05-04T01:55:58.692Z,0
2017-05-04T01:56:39.230Z,0
2017-05-04T01:57:19.774Z,0
2017-05-04T01:58:00.321Z,0
2017-05-04T01:58:40.859Z,0
2017-05-04T01:59:21.408Z,0
2017-05-04T02:00:01.945Z,0
2017-05-04T02:00:42.481Z,0
2017-05-04T02:01:23.024Z,0
2017-05-04T02:02:03.564Z,0
2017-05-04T02:02:44.116Z,0
2017-05-04T02:03:24.661Z,0
2017-05-04T02:04:05.204Z,0
2017-05-04T02:04:45.743Z,0
2017-05-04T02:05:26.288Z,0
2017-05-04T02:06:06.831Z,0
2017-05-04T02:06:47.372Z,0
2017-05-04T02:07:27.913Z,0
2017-05-04T02:08:08.448Z,0
2017-05-04T02:08:48.994Z,0
2017-05-04T02:09:29.532Z,0
2017-05-04T02:10:10.077Z,0
2017-05-04T02:10:50.629Z,0
2017-05-04T02:11:31.168Z,0
2017-05-04T02:12:11.710Z,0
2017-05-04T02:12:52.261Z,0
2017-05-04T02:13:32.805Z,0
2017-05-04T02:14:13.346Z,0
2017-05-04T02:14:53.890Z,0
2017-05-04T02:15:34.430Z,0
2017-05-04T02:16:15.018Z,0
2017-05-04T02:16:55.559Z,0
2017-05-04T02:17:36.094Z,0
2017-05-04T02:18:16.633Z,0
2017-05-04T02:18:57.181Z,0
2017-05-04T02:19:37.728Z,0
2017-05-04T02:20:18.268Z,0
2017-05-04T02:20:58.818Z,0
2017-05-04T02:21:39.354Z,0
2017-05-04T02:22:19.897Z,0
2017-05-04T02:23:00.438Z,0
2017-05-04T02:23:40.986Z,0
2017-05-04T02:24:21.525Z,0
2017-05-04T02:25:02.062Z,0
2017-05-04T02:25:42.614Z,0
2017-05-04T02:26:23.157Z,0
2017-05-04T02:27:03.694Z,0
2017-05-04T02:27:44.245Z,0
2017-05-04T02:28:24.778Z,0
2017-05-04T02:29:05.317Z,0
2017-05-04T02:29:45.858Z,0
2017-05-04T02:30:26.400Z,0
2017-05-04T02:31:06.931Z,0
2017-05-04T02:31:47.472Z,0
2017-05-04T02:32:28.009Z,0
2017-05-04T02:33:08.555Z,0
2017-05-04T02:33:50.006Z,0
2017-05-04T02:34:30.545Z,0
2017-05-04T02:35:11.079Z,0
2017-05-04T02:35:51.620Z,0
2017-05-04T02:36:32.164Z,0
2017-05-04T02:37:12.706Z,0
2017-05-04T02:37:53.247Z,0
2017-05-04T02:38:33.789Z,0
2017-05-04T02:39:14.340Z,0
2017-05-04T02:39:54.890Z,0
2017-05-04T02:40:35.437Z,0
2017-05-04T02:41:15.982Z,0
2017-05-04T02:41:56.527Z,0
2017-05-04T02:42:37.064Z,0
2017-05-04T02:43:17.591Z,0
2017-05-04T02:43:58.132Z,0
2017-05-04T02:44:38.687Z,0
2017-05-04T02:45:19.231Z,0
2017-05-04T02:45:59.775Z,0
2017-05-04T02:46:40.315Z,0
2017-05-04T02:47:20.859Z,0
2017-05-04T02:48:01.408Z,0
2017-05-04T02:48:41.949Z,0
2017-05-04T02:49:22.512Z,0
2017-05-04T02:50:03.060Z,0
2017-05-04T02:50:43.602Z,0
2017-05-04T02:51:24.152Z,0
2017-05-04T02:52:04.691Z,0
2017-05-04T02:52:45.229Z,0
2017-05-04T02:53:25.769Z,0
2017-05-04T02:54:06.297Z,0
2017-05-04T02:54:46.838Z,0
2017-05-04T02:55:27.375Z,0
2017-05-04T02:56:07.916Z,0
2017-05-04T02:56:48.458Z,0
2017-05-04T02:57:28.995Z,0
2017-05-04T02:58:09.545Z,0
2017-05-04T02:58:50.086Z,0
2017-05-04T02:59:30.636Z,0
2017-05-04T03:00:11.192Z,0
2017-05-04T03:00:51.703Z,0
2017-05-04T03:01:32.252Z,0
2017-05-04T03:02:12.797Z,0
2017-05-04T03:02:53.329Z,0
2017-05-04T03:03:33.869Z,0
2017-05-04T03:04:14.408Z,0
2017-05-04T03:04:54.950Z,0
2017-05-04T03:05:35.495Z,0
2017-05-04T03:06:16.036Z,0
2017-05-04T03:06:56.563Z,0
2017-05-04T03:07:37.105Z,0
2017-05-04T03:08:17.644Z,0
2017-05-04T03:08:58.190Z,0
2017-05-04T03:09:38.757Z,0
2017-05-04T03:10:19.282Z,0
2017-05-04T03:10:59.821Z,0
2017-05-04T03:11:40.371Z,0
2017-05-04T03:12:20.920Z,0
2017-05-04T03:13:01.466Z,0
2017-05-04T03:13:42.040Z,0
2017-05-04T03:14:23.599Z,0
2017-05-04T03:15:05.731Z,0
2017-05-04T03:15:46.308Z,0
2017-05-04T03:16:26.862Z,0
2017-05-04T03:17:07.389Z,0
2017-05-04T03:17:47.928Z,0
2017-05-04T03:18:28.459Z,0
2017-05-04T03:19:09.001Z,0
2017-05-04T03:19:49.531Z,0
2017-05-04T03:20:30.078Z,0
2017-05-04T03:21:10.632Z,0
2017-05-04T03:21:51.185Z,0
2017-05-04T03:22:31.732Z,0
2017-05-04T03:23:12.271Z,0
2017-05-04T03:23:52.820Z,0
2017-05-04T03:24:33.361Z,0
2017-05-04T03:25:13.896Z,0
2017-05-04T03:25:54.435Z,0
2017-05-04T03:26:34.978Z,0
2017-05-04T03:27:15.520Z,0
2017-05-04T03:27:56.067Z,0
2017-05-04T03:28:36.608Z,0
2017-05-04T03:29:17.152Z,0
2017-05-04T03:29:57.741Z,0
2017-05-04T03:30:38.242Z,0
2017-05-04T03:31:18.774Z,0
2017-05-04T03:31:59.306Z,0
2017-05-04T03:32:39.840Z,0
2017-05-04T03:33:20.374Z,0
2017-05-04T03:34:00.918Z,0
2017-05-04T03:34:41.461Z,0
2017-05-04T03:35:22.019Z,0
2017-05-04T03:36:02.567Z,0
2017-05-04T03:36:43.107Z,0
2017-05-04T03:37:23.654Z,0
2017-05-04T03:38:04.198Z,0
2017-05-04T03:38:44.736Z,0
2017-05-04T03:39:25.273Z,0
2017-05-04T03:40:05.811Z,0
2017-05-04T03:40:46.349Z,0
2017-05-04T03:41:26.885Z,0
2017-05-04T03:42:07.424Z,0
2017-05-04T03:42:47.975Z,0
2017-05-04T03:43:28.525Z,0
2017-05-04T03:44:09.066Z,0
2017-05-04T03:44:49.612Z,0
2017-05-04T03:45:30.152Z,0
2017-05-04T03:46:10.703Z,0
2017-05-04T03:46:51.242Z,0
2017-05-04T03:47:31.769Z,0
2017-05-04T03:48:12.313Z,0
2017-05-04T03:48:52.856Z,0
2017-05-04T03:49:33.393Z,0
2017-05-04T03:50:13.940Z,0
2017-05-04T03:50:54.484Z,0
2017-05-04T03:51:35.031Z,0
2017-05-04T03:52:15.574Z,0
2017-05-04T03:52:56.122Z,0
2017-05-04T03:53:36.673Z,0
2017-05-04T03:54:17.219Z,0
2017-05-04T03:54:57.751Z,0
2017-05-04T03:55:38.302Z,0
2017-05-04T03:56:18.858Z,0
2017-05-04T03:56:59.376Z,0
2017-05-04T03:57:39.920Z,0
2017-05-04T03:58:20.460Z,0
2017-05-04T03:59:01.019Z,0
2017-05-04T03:59:41.542Z,0
2017-05-04T04:00:23.813Z,0
2017-05-04T04:02:45.833Z,0
2017-05-04T04:03:29.305Z,0
2017-05-04T04:04:11.954Z,0
2017-05-04T04:04:54.617Z,0
2017-05-04T04:05:37.287Z,0
2017-05-04T04:06:20.000Z,0
2017-05-04T04:07:03.401Z,0
2017-05-04T04:07:46.005Z,0
2017-05-04T04:08:28.838Z,0
2017-05-04T04:09:11.439Z,0
2017-05-04T04:11:33.511Z,5
2017-05-04T04:12:16.613Z,5
2017-05-04T04:12:59.320Z,5
2017-05-04T04:13:42.213Z,5
2017-05-04T04:14:25.654Z,5
2017-05-04T04:15:08.763Z,5
2017-05-04T04:15:52.098Z,5
2017-05-04T04:16:34.653Z,5
2017-05-04T04:17:16.612Z,5
2017-05-04T04:17:58.991Z,5
2017-05-04T04:18:41.654Z,5
2017-05-04T04:19:23.882Z,5
2017-05-04T04:20:07.091Z,5
2017-05-04T04:20:50.646Z,5
2017-05-04T04:21:32.944Z,5
2017-05-04T04:22:16.156Z,5
2017-05-04T04:24:48.863Z,5
2017-05-04T04:25:31.866Z,5
2017-05-04T04:26:14.741Z,5
2017-05-04T04:26:58.912Z,5
2017-05-04T04:27:41.453Z,5
2017-05-04T04:28:24.113Z,5
2017-05-04T04:29:07.022Z,5
2017-05-04T04:29:49.758Z,5
2017-05-04T04:30:32.221Z,5
2017-05-04T04:31:14.926Z,5
2017-05-04T04:31:57.457Z,5
2017-05-04T04:32:39.730Z,5
2017-05-04T04:33:23.948Z,5
2017-05-04T04:34:07.049Z,5
2017-05-04T04:34:50.658Z,5
2017-05-04T04:35:32.850Z,5
2017-05-04T04:36:17.278Z,5
2017-05-04T04:36:59.722Z,5
2017-05-04T04:37:42.262Z,5
2017-05-04T04:38:24.828Z,5
2017-05-04T04:39:07.959Z,5
2017-05-04T04:39:50.176Z,10
2017-05-04T04:40:34.394Z,10
2017-05-04T04:41:17.379Z,10
2017-05-04T04:41:59.797Z,10
2017-05-04T04:42:43.452Z,10
2017-05-04T04:43:26.231Z,10
2017-05-04T04:44:08.844Z,10
2017-05-04T04:44:51.688Z,10
2017-05-04T04:45:35.150Z,10
2017-05-04T04:46:17.690Z,10
2017-05-04T04:47:00.583Z,10
2017-05-04T04:47:41.976Z,10
2017-05-04T04:48:22.524Z,10
2017-05-04T04:49:03.064Z,10
2017-05-04T04:49:43.648Z,10
2017-05-04T04:50:24.179Z,10
2017-05-04T04:51:04.724Z,10
2017-05-04T04:51:45.273Z,10
2017-05-04T04:52:25.803Z,10
2017-05-04T04:53:06.347Z,10
2017-05-04T04:53:46.881Z,10
2017-05-04T04:54:27.418Z,10
2017-05-04T04:55:07.955Z,10
2017-05-04T04:55:48.498Z,10
2017-05-04T04:56:29.035Z,10
2017-05-04T04:57:09.585Z,10
2017-05-04T04:57:50.135Z,10
2017-05-04T04:58:30.681Z,10
2017-05-04T04:59:11.225Z,10
2017-05-04T04:59:51.771Z,10
2017-05-04T05:00:32.312Z,15
2017-05-04T05:01:12.851Z,15
2017-05-04T05:01:53.385Z,15
2017-05-04T05:02:33.924Z,15
2017-05-04T05:03:14.462Z,15
2017-05-04T05:03:55.003Z,10
2017-05-04T05:04:35.554Z,10
2017-05-04T05:05:16.095Z,10
2017-05-04T05:05:56.643Z,10
2017-05-04T05:06:37.185Z,10
2017-05-04T05:07:17.725Z,10
2017-05-04T05:07:58.266Z,10
2017-05-04T05:08:38.795Z,10
2017-05-04T05:09:19.347Z,10
2017-05-04T05:09:59.886Z,10
2017-05-04T05:10:40.434Z,10
2017-05-04T05:11:20.969Z,10
2017-05-04T05:12:01.510Z,10
2017-05-04T05:12:42.138Z,10
2017-05-04T05:13:22.656Z,10
2017-05-04T05:14:03.193Z,10
2017-05-04T05:14:43.736Z,10
2017-05-04T05:15:24.277Z,10
2017-05-04T05:16:04.816Z,10
2017-05-04T05:16:45.393Z,10
2017-05-04T05:17:25.918Z,15
2017-05-04T05:18:06.470Z,10
2017-05-04T05:18:47.093Z,10
2017-05-04T05:19:27.637Z,10
2017-05-04T05:20:08.178Z,10
2017-05-04T05:20:48.711Z,10
2017-05-04T05:21:29.245Z,15
2017-05-04T05:22:10.777Z,10
2017-05-04T05:22:51.347Z,10
2017-05-04T05:23:31.949Z,15
2017-05-04T05:24:12.596Z,15
2017-05-04T05:24:53.194Z,15
2017-05-04T05:25:33.727Z,15
2017-05-04T05:26:14.269Z,15
2017-05-04T05:26:54.813Z,15
2017-05-04T05:27:35.337Z,15
2017-05-04T05:28:15.884Z,15
2017-05-04T05:28:56.417Z,15
2017-05-04T05:29:36.957Z,15
2017-05-04T05:30:17.493Z,20
2017-05-04T05:30:58.021Z,20
2017-05-04T05:31:38.571Z,20
2017-05-04T05:32:19.110Z,20
2017-05-04T05:32:59.652Z,20
2017-05-04T05:33:40.190Z,20
2017-05-04T05:34:20.719Z,20
2017-05-04T05:35:01.261Z,20
2017-05-04T05:35:41.805Z,20
2017-05-04T05:36:22.347Z,20
2017-05-04T05:37:02.887Z,20
2017-05-04T05:37:43.446Z,20
2017-05-04T05:38:23.972Z,20
2017-05-04T05:39:04.508Z,20
2017-05-04T05:39:45.049Z,20
2017-05-04T05:40:25.588Z,25
2017-05-04T05:41:06.124Z,25
2017-05-04T05:41:46.661Z,25
2017-05-04T05:42:27.210Z,25
2017-05-04T05:43:07.734Z,25
2017-05-04T05:43:48.289Z,30
2017-05-04T05:44:28.815Z,30
2017-05-04T05:45:09.362Z,30
2017-05-04T05:45:49.904Z,35
2017-05-04T05:46:30.446Z,35
2017-05-04T05:47:10.978Z,35
2017-05-04T05:47:51.524Z,35
2017-05-04T05:48:32.066Z,35
2017-05-04T05:49:12.607Z,35
2017-05-04T05:49:53.145Z,35
2017-05-04T05:50:33.691Z,40
2017-05-04T05:51:14.241Z,40
2017-05-04T05:51:54.767Z,40
2017-05-04T05:52:35.491Z,40
2017-05-04T05:53:16.361Z,40
2017-05-04T05:53:56.903Z,35
2017-05-04T05:54:37.446Z,35
2017-05-04T05:55:17.983Z,35
2017-05-04T05:55:58.533Z,35
2017-05-04T05:56:39.066Z,35
2017-05-04T05:57:19.609Z,35
2017-05-04T05:58:00.151Z,40
2017-05-04T05:58:40.682Z,35
2017-05-04T05:59:21.213Z,35
2017-05-04T06:00:01.752Z,35
2017-05-04T06:00:42.335Z,35
2017-05-04T06:01:22.862Z,35
2017-05-04T06:02:03.404Z,40
2017-05-04T06:02:43.955Z,40
2017-05-04T06:03:24.505Z,40
2017-05-04T06:04:05.075Z,40
2017-05-04T06:04:45.615Z,40
2017-05-04T06:05:26.147Z,40
2017-05-04T06:06:06.913Z,45
2017-05-04T06:06:47.471Z,45
2017-05-04T06:07:28.004Z,45
2017-05-04T06:08:08.556Z,45
2017-05-04T06:08:49.115Z,45
2017-05-04T06:09:29.658Z,50
2017-05-04T06:10:10.248Z,50
2017-05-04T06:10:50.797Z,55
2017-05-04T06:11:31.332Z,55
2017-05-04T06:12:11.893Z,55
2017-05-04T06:12:52.432Z,55
2017-05-04T06:13:32.965Z,60
2017-05-04T06:14:13.511Z,60
2017-05-04T06:14:54.056Z,65
2017-05-04T06:15:34.629Z,65
2017-05-04T06:16:15.168Z,65
2017-05-04T06:16:55.714Z,70
2017-05-04T06:17:36.265Z,70
2017-05-04T06:18:16.801Z,70
2017-05-04T06:18:57.346Z,70
2017-05-04T06:19:37.900Z,70
2017-05-04T06:20:18.422Z,70
2017-05-04T06:20:58.961Z,70
2017-05-04T06:21:39.492Z,75
2017-05-04T06:22:20.050Z,75
2017-05-04T06:23:00.573Z,75
2017-05-04T06:23:41.120Z,75
2017-05-04T06:24:21.664Z,75
2017-05-04T06:25:02.210Z,75
2017-05-04T06:25:42.745Z,75
2017-05-04T06:26:23.277Z,75
2017-05-04T06:27:03.813Z,75
2017-05-04T06:27:44.347Z,75
2017-05-04T06:28:24.888Z,80
2017-05-04T06:29:05.427Z,80
2017-05-04T06:29:45.967Z,80
2017-05-04T06:30:26.501Z,85
2017-05-04T06:31:07.050Z,85
2017-05-04T06:31:47.586Z,85
2017-05-04T06:32:28.130Z,90
2017-05-04T06:33:08.674Z,90
2017-05-04T06:33:49.214Z,90
2017-05-04T06:34:29.762Z,90
2017-05-04T06:35:10.302Z,90
2017-05-04T06:35:50.844Z,95
2017-05-04T06:36:31.396Z,95
2017-05-04T06:37:11.955Z,100
2017-05-04T06:37:52.498Z,100
2017-05-04T06:38:33.044Z,100
2017-05-04T06:39:13.591Z,100
2017-05-04T06:39:54.141Z,100
2017-05-04T06:40:34.688Z,100
2017-05-04T06:41:15.232Z,105
2017-05-04T06:41:55.764Z,105
2017-05-04T06:42:36.330Z,105
2017-05-04T06:43:16.874Z,105
2017-05-04T06:43:57.433Z,110
2017-05-04T06:44:37.969Z,110
2017-05-04T06:45:18.543Z,115
2017-05-04T06:45:59.089Z,120
2017-05-04T06:46:39.622Z,120
2017-05-04T06:47:20.159Z,125
2017-05-04T06:48:00.687Z,125
2017-05-04T06:48:41.217Z,125
2017-05-04T06:49:21.775Z,130
2017-05-04T06:50:02.311Z,130
2017-05-04T06:50:42.910Z,130
2017-05-04T06:51:23.444Z,140
2017-05-04T06:52:03.971Z,145
2017-05-04T06:52:44.510Z,150
2017-05-04T06:53:25.055Z,155
2017-05-04T06:54:05.597Z,160
2017-05-04T06:54:46.142Z,160
2017-05-04T06:55:26.680Z,165
2017-05-04T06:56:07.222Z,165
2017-05-04T06:56:47.752Z,165
2017-05-04T06:57:28.299Z,170
2017-05-04T06:58:08.840Z,170
2017-05-04T06:58:49.384Z,170
2017-05-04T06:59:29.920Z,170
2017-05-04T07:00:10.460Z,175
2017-05-04T07:00:51.011Z,180
2017-05-04T07:01:31.536Z,180
2017-05-04T07:02:12.085Z,185
2017-05-04T07:02:52.637Z,190
2017-05-04T07:03:33.176Z,195
2017-05-04T07:04:13.706Z,205
2017-05-04T07:04:54.248Z,210
2017-05-04T07:05:34.789Z,215
2017-05-04T07:06:15.330Z,225
2017-05-04T07:06:55.877Z,230
2017-05-04T07:07:36.430Z,240
2017-05-04T07:08:16.969Z,240
2017-05-04T07:08:57.508Z,235
2017-05-04T07:09:38.043Z,245
2017-05-04T07:10:18.615Z,255
2017-05-04T07:10:59.162Z,270
2017-05-04T07:11:39.698Z,305
2017-05-04T07:12:20.229Z,330
2017-05-04T07:13:00.775Z,335
2017-05-04T07:13:41.316Z,340
2017-05-04T07:14:21.848Z,360
2017-05-04T07:15:02.379Z,370
2017-05-04T07:15:42.928Z,385
2017-05-04T07:16:23.475Z,385
2017-05-04T07:17:04.025Z,370
2017-05-04T07:17:44.551Z,360
2017-05-04T07:18:25.126Z,350
2017-05-04T07:19:05.663Z,335
2017-05-04T07:19:46.205Z,310
2017-05-04T07:20:26.743Z,270
2017-05-04T07:21:07.281Z,250
2017-05-04T07:21:47.822Z,240
2017-05-04T07:22:28.371Z,230
2017-05-04T07:23:08.908Z,225
2017-05-04T07:23:49.447Z,235
2017-05-04T07:24:29.997Z,245
2017-05-04T07:25:10.548Z,260
2017-05-04T07:25:51.092Z,260
2017-05-04T07:26:31.644Z,265
2017-05-04T07:27:12.183Z,250
2017-05-04T07:27:52.716Z,235
2017-05-04T07:28:33.264Z,235
2017-05-04T07:29:13.805Z,265
2017-05-04T07:29:54.340Z,265
2017-05-04T07:30:34.883Z,270
2017-05-04T07:31:15.432Z,260
2017-05-04T07:31:55.966Z,245
2017-05-04T07:32:36.504Z,250
2017-05-04T07:33:17.050Z,225
2017-05-04T07:33:57.613Z,200
2017-05-04T07:34:38.162Z,220
2017-05-04T07:35:18.709Z,235
2017-05-04T07:35:59.274Z,230
2017-05-04T07:36:39.820Z,225
2017-05-04T07:37:20.370Z,215
2017-05-04T07:38:00.915Z,215
2017-05-04T07:38:41.495Z,200
2017-05-04T07:39:22.031Z,205
2017-05-04T07:40:02.575Z,205
2017-05-04T07:40:43.123Z,205
2017-05-04T07:41:23.665Z,195
2017-05-04T07:42:04.207Z,160
2017-05-04T07:42:44.749Z,175
2017-05-04T07:43:25.296Z,200
2017-05-04T07:44:05.831Z,240
2017-05-04T07:44:46.374Z,250
2017-05-04T07:45:26.907Z,250
2017-05-04T07:46:07.451Z,255
2017-05-04T07:46:47.997Z,270
2017-05-04T07:47:28.546Z,270
2017-05-04T07:48:09.087Z,265
2017-05-04T07:48:49.626Z,265
2017-05-04T07:49:30.176Z,265
2017-05-04T07:50:10.724Z,270
2017-05-04T07:50:51.278Z,260
2017-05-04T07:51:31.830Z,260
2017-05-04T07:52:12.378Z,250
2017-05-04T07:52:52.923Z,245
2017-05-04T07:53:33.480Z,240
2017-05-04T07:54:14.030Z,245
2017-05-04T07:54:54.570Z,240
2017-05-04T07:55:35.112Z,240
2017-05-04T07:56:15.651Z,240
2017-05-04T07:56:56.168Z,235
2017-05-04T07:57:36.705Z,230
2017-05-04T07:58:17.239Z,220
2017-05-04T07:58:57.785Z,220
2017-05-04T07:59:38.335Z,235
2017-05-04T08:00:18.886Z,230
2017-05-04T08:00:59.439Z,230
2017-05-04T08:01:39.990Z,225
2017-05-04T08:02:20.530Z,230
2017-05-04T08:03:01.077Z,240
2017-05-04T08:03:41.619Z,240
2017-05-04T08:04:22.152Z,230
2017-05-04T08:05:02.707Z,245
2017-05-04T08:05:43.254Z,245
2017-05-04T08:06:23.782Z,255
2017-05-04T08:07:04.323Z,260
2017-05-04T08:07:44.856Z,270
2017-05-04T08:08:25.396Z,285
2017-05-04T08:09:05.939Z,305
2017-05-04T08:09:46.482Z,315
2017-05-04T08:10:27.026Z,330
2017-05-04T08:11:07.570Z,335
2017-05-04T08:11:48.113Z,305
2017-05-04T08:12:28.644Z,320
2017-05-04T08:13:09.179Z,330
2017-05-04T08:13:49.717Z,330
2017-05-04T08:14:30.259Z,325
2017-05-04T08:15:10.793Z,295
2017-05-04T08:15:51.333Z,295
2017-05-04T08:16:31.869Z,330
2017-05-04T08:17:12.417Z,350
2017-05-04T08:17:52.934Z,345
2017-05-04T08:18:33.478Z,330
2017-05-04T08:19:14.012Z,305
2017-05-04T08:19:54.545Z,275
2017-05-04T08:20:35.124Z,290
2017-05-04T08:21:15.658Z,285
2017-05-04T08:21:56.198Z,275
2017-05-04T08:22:36.760Z,250
2017-05-04T08:23:17.309Z,200
2017-05-04T08:23:57.857Z,170
2017-05-04T08:24:38.407Z,170
2017-05-04T08:25:18.950Z,205
2017-05-04T08:25:59.500Z,225
2017-05-04T08:26:40.055Z,235
2017-05-04T08:27:20.603Z,230
2017-05-04T08:28:01.153Z,215
2017-05-04T08:28:41.704Z,230
2017-05-04T08:29:22.238Z,245
2017-05-04T08:30:02.780Z,270
2017-05-04T08:30:43.329Z,295
2017-05-04T08:31:23.887Z,305
2017-05-04T08:32:04.434Z,310
2017-05-04T08:32:44.983Z,300
2017-05-04T08:33:25.550Z,290
2017-05-04T08:34:06.076Z,310
2017-05-04T08:34:46.612Z,345
2017-05-04T08:35:27.152Z,360
2017-05-04T08:36:07.695Z,330
2017-05-04T08:36:48.239Z,280
2017-05-04T08:37:28.784Z,255
2017-05-04T08:38:09.330Z,260
2017-05-04T08:38:49.881Z,315
2017-05-04T08:39:30.424Z,310
2017-05-04T08:40:10.978Z,340
2017-05-04T08:40:51.530Z,375
2017-05-04T08:41:32.082Z,345
2017-05-04T08:42:12.628Z,280
2017-05-04T08:42:53.192Z,230
2017-05-04T08:43:33.763Z,220
2017-05-04T08:44:14.295Z,230
2017-05-04T08:44:54.845Z,230
2017-05-04T08:45:35.392Z,210
2017-05-04T08:46:15.938Z,200
2017-05-04T08:46:56.552Z,195
2017-05-04T08:47:37.100Z,215
2017-05-04T08:48:17.651Z,255
2017-05-04T08:48:58.205Z,265
2017-05-04T08:49:38.747Z,270
2017-05-04T08:50:19.280Z,250
2017-05-04T08:50:59.823Z,260
2017-05-04T08:51:40.355Z,275
2017-05-04T08:52:20.906Z,240
2017-05-04T08:53:01.453Z,220
2017-05-04T08:53:41.993Z,235
2017-05-04T08:54:22.541Z,280
2017-05-04T08:55:03.090Z,325
2017-05-04T08:55:43.640Z,350
2017-05-04T08:56:24.200Z,340
2017-05-04T08:57:04.751Z,300
2017-05-04T08:57:45.299Z,255
2017-05-04T08:58:25.854Z,240
2017-05-04T08:59:06.405Z,255
2017-05-04T08:59:46.951Z,245
2017-05-04T09:00:27.504Z,255
2017-05-04T09:01:08.058Z,280
2017-05-04T09:01:48.608Z,335
2017-05-04T09:02:29.152Z,425
2017-05-04T09:03:09.708Z,490
2017-05-04T09:03:50.259Z,450
2017-05-04T09:04:30.810Z,430
2017-05-04T09:05:11.362Z,425
2017-05-04T09:05:51.908Z,405
2017-05-04T09:06:32.466Z,380
2017-05-04T09:07:13.008Z,345
2017-05-04T09:07:53.566Z,345
2017-05-04T09:08:34.119Z,380
2017-05-04T09:09:14.657Z,380
2017-05-04T09:09:55.212Z,350
2017-05-04T09:10:35.767Z,300
2017-05-04T09:11:16.327Z,240
2017-05-04T09:11:56.873Z,205
2017-05-04T09:12:37.423Z,220
2017-05-04T09:13:17.972Z,245
2017-05-04T09:13:58.524Z,260
2017-05-04T09:14:39.090Z,295
2017-05-04T09:15:19.667Z,310
2017-05-04T09:16:00.199Z,310
2017-05-04T09:16:40.737Z,320
2017-05-04T09:17:21.272Z,335
2017-05-04T09:18:01.824Z,335
2017-05-04T09:18:42.370Z,335
2017-05-04T09:19:22.941Z,325
2017-05-04T09:20:03.462Z,315
2017-05-04T09:20:44.011Z,305
2017-05-04T09:21:24.558Z,290
2017-05-04T09:22:05.110Z,270
2017-05-04T09:22:45.651Z,255
2017-05-04T09:23:26.200Z,240
2017-05-04T09:24:06.749Z,225
2017-05-04T09:24:47.301Z,210
2017-05-04T09:25:27.827Z,210
2017-05-04T09:26:08.365Z,195
2017-05-04T09:26:48.905Z,170
2017-05-04T09:27:29.469Z,140
2017-05-04T09:28:10.011Z,120
2017-05-04T09:28:50.558Z,115
2017-05-04T09:29:31.101Z,110
2017-05-04T09:30:11.645Z,105
2017-05-04T09:30:52.183Z,100
2017-05-04T09:31:32.741Z,105
2017-05-04T09:32:13.284Z,110
2017-05-04T09:32:53.833Z,115
2017-05-04T09:33:34.385Z,130
2017-05-04T09:34:14.913Z,145
2017-05-04T09:34:55.472Z,155
2017-05-04T09:35:36.011Z,170
2017-05-04T09:36:16.549Z,170
2017-05-04T09:36:57.090Z,160
2017-05-04T09:37:37.633Z,145
2017-05-04T09:38:18.175Z,125
2017-05-04T09:38:58.712Z,120
2017-05-04T09:39:39.262Z,130
2017-05-04T09:40:19.810Z,140
2017-05-04T09:41:00.351Z,155
2017-05-04T09:41:40.894Z,160
2017-05-04T09:42:21.432Z,175
2017-05-04T09:43:01.981Z,175
2017-05-04T09:43:42.532Z,165
2017-05-04T09:44:23.080Z,165
2017-05-04T09:45:03.621Z,150
2017-05-04T09:45:44.169Z,135
2017-05-04T09:46:24.721Z,130
2017-05-04T09:47:05.274Z,145
2017-05-04T09:47:45.832Z,160
2017-05-04T09:48:26.373Z,180